sensor_id;sensor_type;location;lat;lon;timestamp;P1;durP1;ratioP1;P2;durP2;ratioP2
68647;SDS011;55632;51.962;16.116;2022-07-19T00:00:49;10.85;;;5.95;;
68647;SDS011;55632;51.962;16.116;2022-07-19T00:05:50;15.02;;;5.57;;
68647;SDS011;55632;51.962;16.116;2022-07-19T00:10:51;11.65;;;5.97;;
68647;SDS011;55632;51.962;16.116;2022-07-19T00:15:52;15.15;;;5.40;;
68647;SDS011;55632;51.962;16.116;2022-07-19T00:20:52;9.70;;;4.90;;
68647;SDS011;55632;51.962;16.116;2022-07-19T00:25:53;13.07;;;5.57;;
68647;SDS011;55632;51.962;16.116;2022-07-19T00:30:54;11.80;;;5.60;;
68647;SDS011;55632;51.962;16.116;2022-07-19T00:35:55;16.55;;;6.30;;
68647;SDS011;55632;51.962;16.116;2022-07-19T00:40:56;15.18;;;5.20;;
68647;SDS011;55632;51.962;16.116;2022-07-19T00:45:57;19.23;;;5.65;;
68647;SDS011;55632;51.962;16.116;2022-07-19T00:50:58;9.40;;;4.93;;
68647;SDS011;55632;51.962;16.116;2022-07-19T00:55:59;17.85;;;5.75;;
68647;SDS011;55632;51.962;16.116;2022-07-19T01:01:04;17.45;;;5.90;;
68647;SDS011;55632;51.962;16.116;2022-07-19T01:06:07;12.63;;;4.78;;
68647;SDS011;55632;51.962;16.116;2022-07-19T01:11:09;14.10;;;5.25;;
68647;SDS011;55632;51.962;16.116;2022-07-19T01:16:10;9.15;;;4.95;;
68647;SDS011;55632;51.962;16.116;2022-07-19T01:21:17;7.65;;;4.53;;
68647;SDS011;55632;51.962;16.116;2022-07-19T01:26:20;10.37;;;4.37;;
68647;SDS011;55632;51.962;16.116;2022-07-19T01:31:21;9.32;;;4.25;;
68647;SDS011;55632;51.962;16.116;2022-07-19T01:36:22;12.63;;;5.10;;
68647;SDS011;55632;51.962;16.116;2022-07-19T01:41:22;10.25;;;4.90;;
68647;SDS011;55632;51.962;16.116;2022-07-19T01:46:23;8.27;;;5.00;;
68647;SDS011;55632;51.962;16.116;2022-07-19T01:51:24;10.40;;;4.40;;
68647;SDS011;55632;51.962;16.116;2022-07-19T01:56:25;13.63;;;4.72;;
68647;SDS011;55632;51.962;16.116;2022-07-19T02:01:26;8.93;;;5.00;;
68647;SDS011;55632;51.962;16.116;2022-07-19T02:06:26;9.35;;;4.63;;
68647;SDS011;55632;51.962;16.116;2022-07-19T02:11:28;10.15;;;4.65;;
68647;SDS011;55632;51.962;16.116;2022-07-19T02:16:35;11.57;;;5.30;;
68647;SDS011;55632;51.962;16.116;2022-07-19T02:21:37;9.98;;;5.32;;
68647;SDS011;55632;51.962;16.116;2022-07-19T02:26:38;10.10;;;5.85;;
68647;SDS011;55632;51.962;16.116;2022-07-19T02:31:39;7.72;;;3.63;;
68647;SDS011;55632;51.962;16.116;2022-07-19T02:36:40;11.85;;;5.47;;
68647;SDS011;55632;51.962;16.116;2022-07-19T02:41:41;8.20;;;4.25;;
68647;SDS011;55632;51.962;16.116;2022-07-19T02:46:41;13.40;;;5.03;;
68647;SDS011;55632;51.962;16.116;2022-07-19T02:51:42;11.10;;;5.35;;
68647;SDS011;55632;51.962;16.116;2022-07-19T02:56:43;10.15;;;4.68;;
68647;SDS011;55632;51.962;16.116;2022-07-19T03:01:44;13.50;;;5.22;;
68647;SDS011;55632;51.962;16.116;2022-07-19T03:06:44;12.88;;;5.20;;
68647;SDS011;55632;51.962;16.116;2022-07-19T03:11:45;15.65;;;6.20;;
68647;SDS011;55632;51.962;16.116;2022-07-19T03:16:46;11.38;;;5.05;;
68647;SDS011;55632;51.962;16.116;2022-07-19T03:21:47;13.18;;;5.88;;
68647;SDS011;55632;51.962;16.116;2022-07-19T03:26:48;10.25;;;5.82;;
68647;SDS011;55632;51.962;16.116;2022-07-19T03:31:49;9.13;;;5.03;;
68647;SDS011;55632;51.962;16.116;2022-07-19T03:36:50;45.03;;;8.70;;
68647;SDS011;55632;51.962;16.116;2022-07-19T03:41:51;17.80;;;5.63;;
68647;SDS011;55632;51.962;16.116;2022-07-19T03:46:52;11.07;;;5.47;;
68647;SDS011;55632;51.962;16.116;2022-07-19T03:51:52;8.95;;;5.43;;
68647;SDS011;55632;51.962;16.116;2022-07-19T03:56:53;9.00;;;5.00;;
68647;SDS011;55632;51.962;16.116;2022-07-19T04:01:55;12.65;;;5.22;;
68647;SDS011;55632;51.962;16.116;2022-07-19T04:06:56;9.02;;;4.63;;
68647;SDS011;55632;51.962;16.116;2022-07-19T04:11:57;11.70;;;5.40;;
68647;SDS011;55632;51.962;16.116;2022-07-19T04:16:57;14.43;;;5.28;;
68647;SDS011;55632;51.962;16.116;2022-07-19T04:21:58;9.63;;;4.82;;
68647;SDS011;55632;51.962;16.116;2022-07-19T04:26:59;14.32;;;4.43;;
68647;SDS011;55632;51.962;16.116;2022-07-19T04:32:00;8.70;;;4.13;;
68647;SDS011;55632;51.962;16.116;2022-07-19T04:37:00;7.45;;;4.40;;
68647;SDS011;55632;51.962;16.116;2022-07-19T04:42:01;7.97;;;3.92;;
68647;SDS011;55632;51.962;16.116;2022-07-19T04:47:02;9.95;;;3.83;;
68647;SDS011;55632;51.962;16.116;2022-07-19T04:52:03;12.15;;;4.35;;
68647;SDS011;55632;51.962;16.116;2022-07-19T04:57:04;15.02;;;4.40;;
68647;SDS011;55632;51.962;16.116;2022-07-19T05:02:05;6.40;;;4.05;;
68647;SDS011;55632;51.962;16.116;2022-07-19T05:07:06;9.18;;;3.83;;
68647;SDS011;55632;51.962;16.116;2022-07-19T05:12:07;5.78;;;3.42;;
68647;SDS011;55632;51.962;16.116;2022-07-19T05:17:09;8.40;;;3.90;;
68647;SDS011;55632;51.962;16.116;2022-07-19T05:22:10;7.85;;;3.58;;
68647;SDS011;55632;51.962;16.116;2022-07-19T05:27:11;10.68;;;3.72;;
68647;SDS011;55632;51.962;16.116;2022-07-19T05:32:11;9.13;;;3.50;;
68647;SDS011;55632;51.962;16.116;2022-07-19T05:37:12;7.93;;;3.50;;
68647;SDS011;55632;51.962;16.116;2022-07-19T05:42:13;5.20;;;3.10;;
68647;SDS011;55632;51.962;16.116;2022-07-19T05:47:14;5.60;;;3.35;;
68647;SDS011;55632;51.962;16.116;2022-07-19T05:52:16;11.50;;;3.80;;
68647;SDS011;55632;51.962;16.116;2022-07-19T05:57:17;12.63;;;3.58;;
68647;SDS011;55632;51.962;16.116;2022-07-19T06:02:18;9.57;;;3.58;;
68647;SDS011;55632;51.962;16.116;2022-07-19T06:07:18;9.27;;;3.00;;
68647;SDS011;55632;51.962;16.116;2022-07-19T06:12:19;10.90;;;3.33;;
68647;SDS011;55632;51.962;16.116;2022-07-19T06:17:20;6.25;;;2.50;;
68647;SDS011;55632;51.962;16.116;2022-07-19T06:22:21;61.92;;;5.80;;
68647;SDS011;55632;51.962;16.116;2022-07-19T06:27:21;7.53;;;2.38;;
68647;SDS011;55632;51.962;16.116;2022-07-19T06:32:22;4.28;;;2.15;;
68647;SDS011;55632;51.962;16.116;2022-07-19T06:37:23;12.40;;;2.63;;
68647;SDS011;55632;51.962;16.116;2022-07-19T06:42:24;24.25;;;3.38;;
68647;SDS011;55632;51.962;16.116;2022-07-19T06:47:25;3.55;;;2.20;;
68647;SDS011;55632;51.962;16.116;2022-07-19T06:52:25;6.13;;;1.90;;
68647;SDS011;55632;51.962;16.116;2022-07-19T06:57:26;4.90;;;2.83;;
68647;SDS011;55632;51.962;16.116;2022-07-19T07:02:27;5.15;;;2.13;;
68647;SDS011;55632;51.962;16.116;2022-07-19T07:07:28;3.85;;;1.60;;
68647;SDS011;55632;51.962;16.116;2022-07-19T07:12:29;11.00;;;3.10;;
68647;SDS011;55632;51.962;16.116;2022-07-19T07:17:30;3.55;;;1.85;;
68647;SDS011;55632;51.962;16.116;2022-07-19T07:22:30;5.00;;;2.13;;
68647;SDS011;55632;51.962;16.116;2022-07-19T07:27:32;12.98;;;2.80;;
68647;SDS011;55632;51.962;16.116;2022-07-19T07:32:35;7.40;;;2.10;;
68647;SDS011;55632;51.962;16.116;2022-07-19T07:37:36;12.10;;;2.97;;
68647;SDS011;55632;51.962;16.116;2022-07-19T07:42:37;26.23;;;3.67;;
68647;SDS011;55632;51.962;16.116;2022-07-19T07:47:38;4.22;;;1.80;;
68647;SDS011;55632;51.962;16.116;2022-07-19T07:52:38;8.38;;;2.55;;
68647;SDS011;55632;51.962;16.116;2022-07-19T07:57:40;5.50;;;2.00;;
68647;SDS011;55632;51.962;16.116;2022-07-19T08:02:42;6.15;;;2.20;;
68647;SDS011;55632;51.962;16.116;2022-07-19T08:07:44;6.85;;;2.50;;
68647;SDS011;55632;51.962;16.116;2022-07-19T08:12:44;13.85;;;2.60;;
68647;SDS011;55632;51.962;16.116;2022-07-19T08:17:45;4.25;;;2.15;;
68647;SDS011;55632;51.962;16.116;2022-07-19T08:22:46;9.20;;;2.40;;
68647;SDS011;55632;51.962;16.116;2022-07-19T08:27:47;4.65;;;2.05;;
68647;SDS011;55632;51.962;16.116;2022-07-19T08:32:48;5.50;;;1.98;;
68647;SDS011;55632;51.962;16.116;2022-07-19T08:37:48;3.53;;;1.90;;
68647;SDS011;55632;51.962;16.116;2022-07-19T08:42:50;10.10;;;2.90;;
68647;SDS011;55632;51.962;16.116;2022-07-19T08:47:52;5.32;;;2.05;;
68647;SDS011;55632;51.962;16.116;2022-07-19T08:52:53;3.95;;;2.20;;
68647;SDS011;55632;51.962;16.116;2022-07-19T08:57:57;8.05;;;2.28;;
68647;SDS011;55632;51.962;16.116;2022-07-19T09:02:59;5.47;;;2.20;;
68647;SDS011;55632;51.962;16.116;2022-07-19T09:08:06;6.90;;;2.10;;
68647;SDS011;55632;51.962;16.116;2022-07-19T09:13:15;5.15;;;1.90;;
68647;SDS011;55632;51.962;16.116;2022-07-19T09:28:26;2.40;;;1.80;;
68647;SDS011;55632;51.962;16.116;2022-07-19T09:33:31;4.85;;;2.17;;
68647;SDS011;55632;51.962;16.116;2022-07-19T09:38:33;5.30;;;2.20;;
68647;SDS011;55632;51.962;16.116;2022-07-19T09:43:58;6.78;;;1.90;;
68647;SDS011;55632;51.962;16.116;2022-07-19T09:49:07;7.30;;;2.13;;
68647;SDS011;55632;51.962;16.116;2022-07-19T09:54:08;5.68;;;2.30;;
68647;SDS011;55632;51.962;16.116;2022-07-19T09:59:12;2.15;;;1.88;;
68647;SDS011;55632;51.962;16.116;2022-07-19T10:04:15;4.28;;;2.00;;
68647;SDS011;55632;51.962;16.116;2022-07-19T10:09:19;3.08;;;1.95;;
68647;SDS011;55632;51.962;16.116;2022-07-19T10:14:20;3.90;;;2.10;;
68647;SDS011;55632;51.962;16.116;2022-07-19T10:25:44;13.57;;;2.92;;
68647;SDS011;55632;51.962;16.116;2022-07-19T10:30:46;5.00;;;2.40;;
68647;SDS011;55632;51.962;16.116;2022-07-19T10:35:48;3.17;;;2.10;;
68647;SDS011;55632;51.962;16.116;2022-07-19T10:40:50;3.55;;;1.92;;
68647;SDS011;55632;51.962;16.116;2022-07-19T10:50:57;3.67;;;2.25;;
68647;SDS011;55632;51.962;16.116;2022-07-19T11:01:19;5.43;;;2.20;;
68647;SDS011;55632;51.962;16.116;2022-07-19T11:06:23;3.17;;;2.03;;
68647;SDS011;55632;51.962;16.116;2022-07-19T11:11:25;4.72;;;2.13;;
68647;SDS011;55632;51.962;16.116;2022-07-19T11:16:29;3.63;;;2.28;;
68647;SDS011;55632;51.962;16.116;2022-07-19T11:21:31;2.88;;;2.20;;
68647;SDS011;55632;51.962;16.116;2022-07-19T11:26:37;9.93;;;2.60;;
68647;SDS011;55632;51.962;16.116;2022-07-19T11:31:45;7.30;;;2.70;;
68647;SDS011;55632;51.962;16.116;2022-07-19T11:36:57;4.07;;;2.10;;
68647;SDS011;55632;51.962;16.116;2022-07-19T11:41:59;4.72;;;2.05;;
68647;SDS011;55632;51.962;16.116;2022-07-19T11:47:00;3.95;;;2.53;;
68647;SDS011;55632;51.962;16.116;2022-07-19T11:52:00;5.90;;;2.28;;
68647;SDS011;55632;51.962;16.116;2022-07-19T11:57:01;3.28;;;2.25;;
68647;SDS011;55632;51.962;16.116;2022-07-19T12:02:02;5.95;;;2.10;;
68647;SDS011;55632;51.962;16.116;2022-07-19T12:07:03;6.45;;;2.30;;
68647;SDS011;55632;51.962;16.116;2022-07-19T12:12:16;7.93;;;2.55;;
68647;SDS011;55632;51.962;16.116;2022-07-19T12:17:18;4.05;;;2.03;;
68647;SDS011;55632;51.962;16.116;2022-07-19T12:22:27;5.05;;;2.08;;
68647;SDS011;55632;51.962;16.116;2022-07-19T12:27:30;2.95;;;2.13;;
68647;SDS011;55632;51.962;16.116;2022-07-19T12:32:32;4.85;;;2.25;;
68647;SDS011;55632;51.962;16.116;2022-07-19T12:37:34;6.85;;;2.20;;
68647;SDS011;55632;51.962;16.116;2022-07-19T12:42:38;4.00;;;2.00;;
68647;SDS011;55632;51.962;16.116;2022-07-19T12:47:50;3.25;;;1.98;;
68647;SDS011;55632;51.962;16.116;2022-07-19T12:52:52;6.35;;;2.22;;
68647;SDS011;55632;51.962;16.116;2022-07-19T12:57:55;3.72;;;2.20;;
68647;SDS011;55632;51.962;16.116;2022-07-19T13:02:56;3.90;;;2.15;;
68647;SDS011;55632;51.962;16.116;2022-07-19T13:07:59;2.35;;;1.90;;
68647;SDS011;55632;51.962;16.116;2022-07-19T13:13:00;3.88;;;2.20;;
68647;SDS011;55632;51.962;16.116;2022-07-19T13:18:01;11.57;;;5.47;;
68647;SDS011;55632;51.962;16.116;2022-07-19T13:23:02;9.85;;;2.85;;
68647;SDS011;55632;51.962;16.116;2022-07-19T13:28:03;5.50;;;2.40;;
68647;SDS011;55632;51.962;16.116;2022-07-19T13:33:04;5.80;;;2.67;;
68647;SDS011;55632;51.962;16.116;2022-07-19T13:38:05;7.07;;;2.50;;
68647;SDS011;55632;51.962;16.116;2022-07-19T13:43:05;6.35;;;2.47;;
68647;SDS011;55632;51.962;16.116;2022-07-19T13:48:06;13.30;;;2.80;;
68647;SDS011;55632;51.962;16.116;2022-07-19T13:53:07;9.70;;;2.45;;
68647;SDS011;55632;51.962;16.116;2022-07-19T13:58:08;4.43;;;2.80;;
68647;SDS011;55632;51.962;16.116;2022-07-19T14:03:09;10.13;;;3.20;;
68647;SDS011;55632;51.962;16.116;2022-07-19T14:08:10;12.93;;;3.20;;
68647;SDS011;55632;51.962;16.116;2022-07-19T14:13:11;7.47;;;3.35;;
68647;SDS011;55632;51.962;16.116;2022-07-19T14:18:13;5.88;;;3.20;;
68647;SDS011;55632;51.962;16.116;2022-07-19T14:23:14;20.85;;;3.72;;
68647;SDS011;55632;51.962;16.116;2022-07-19T14:28:15;12.23;;;3.35;;
68647;SDS011;55632;51.962;16.116;2022-07-19T14:33:16;8.07;;;2.92;;
68647;SDS011;55632;51.962;16.116;2022-07-19T14:38:17;8.57;;;4.10;;
68647;SDS011;55632;51.962;16.116;2022-07-19T14:43:19;10.25;;;3.50;;
68647;SDS011;55632;51.962;16.116;2022-07-19T14:48:20;7.90;;;3.50;;
68647;SDS011;55632;51.962;16.116;2022-07-19T14:53:21;10.23;;;3.25;;
68647;SDS011;55632;51.962;16.116;2022-07-19T14:58:22;14.05;;;3.17;;
68647;SDS011;55632;51.962;16.116;2022-07-19T15:03:23;9.57;;;3.50;;
68647;SDS011;55632;51.962;16.116;2022-07-19T15:08:24;10.55;;;2.80;;
68647;SDS011;55632;51.962;16.116;2022-07-19T15:13:25;7.20;;;2.78;;
68647;SDS011;55632;51.962;16.116;2022-07-19T15:18:26;5.43;;;2.65;;
68647;SDS011;55632;51.962;16.116;2022-07-19T15:23:27;4.63;;;2.90;;
68647;SDS011;55632;51.962;16.116;2022-07-19T15:28:28;8.75;;;3.42;;
68647;SDS011;55632;51.962;16.116;2022-07-19T15:33:29;11.60;;;3.28;;
68647;SDS011;55632;51.962;16.116;2022-07-19T15:38:31;4.60;;;3.13;;
68647;SDS011;55632;51.962;16.116;2022-07-19T15:43:32;14.32;;;3.10;;
68647;SDS011;55632;51.962;16.116;2022-07-19T15:48:33;8.85;;;2.92;;
68647;SDS011;55632;51.962;16.116;2022-07-19T15:53:35;40.50;;;5.07;;
68647;SDS011;55632;51.962;16.116;2022-07-19T15:58:37;20.98;;;3.40;;
68647;SDS011;55632;51.962;16.116;2022-07-19T16:03:38;8.48;;;3.00;;
68647;SDS011;55632;51.962;16.116;2022-07-19T16:08:39;5.35;;;2.65;;
68647;SDS011;55632;51.962;16.116;2022-07-19T16:13:40;7.07;;;2.95;;
68647;SDS011;55632;51.962;16.116;2022-07-19T16:18:42;5.90;;;2.60;;
68647;SDS011;55632;51.962;16.116;2022-07-19T16:23:43;6.57;;;2.97;;
68647;SDS011;55632;51.962;16.116;2022-07-19T16:28:43;5.32;;;2.55;;
68647;SDS011;55632;51.962;16.116;2022-07-19T16:33:44;5.90;;;2.95;;
68647;SDS011;55632;51.962;16.116;2022-07-19T16:38:45;7.22;;;3.92;;
68647;SDS011;55632;51.962;16.116;2022-07-19T16:43:46;9.35;;;2.90;;
68647;SDS011;55632;51.962;16.116;2022-07-19T16:48:47;22.33;;;4.38;;
68647;SDS011;55632;51.962;16.116;2022-07-19T16:53:50;4.97;;;2.50;;
68647;SDS011;55632;51.962;16.116;2022-07-19T16:58:51;12.63;;;3.00;;
68647;SDS011;55632;51.962;16.116;2022-07-19T17:03:52;5.13;;;2.53;;
68647;SDS011;55632;51.962;16.116;2022-07-19T17:08:53;12.27;;;2.95;;
68647;SDS011;55632;51.962;16.116;2022-07-19T17:13:55;6.97;;;2.90;;
68647;SDS011;55632;51.962;16.116;2022-07-19T17:18:56;5.75;;;3.00;;
68647;SDS011;55632;51.962;16.116;2022-07-19T17:24:00;10.02;;;3.13;;
68647;SDS011;55632;51.962;16.116;2022-07-19T17:29:01;14.88;;;2.92;;
68647;SDS011;55632;51.962;16.116;2022-07-19T17:34:02;6.28;;;2.45;;
68647;SDS011;55632;51.962;16.116;2022-07-19T17:39:21;4.15;;;2.40;;
68647;SDS011;55632;51.962;16.116;2022-07-19T17:49:22;8.27;;;2.90;;
68647;SDS011;55632;51.962;16.116;2022-07-19T17:54:24;5.30;;;2.80;;
68647;SDS011;55632;51.962;16.116;2022-07-19T17:59:25;6.38;;;2.80;;
68647;SDS011;55632;51.962;16.116;2022-07-19T18:04:26;11.27;;;3.92;;
68647;SDS011;55632;51.962;16.116;2022-07-19T18:09:27;7.85;;;3.30;;
68647;SDS011;55632;51.962;16.116;2022-07-19T18:14:28;9.75;;;3.30;;
68647;SDS011;55632;51.962;16.116;2022-07-19T18:19:29;13.20;;;3.28;;
68647;SDS011;55632;51.962;16.116;2022-07-19T18:24:35;14.85;;;3.38;;
68647;SDS011;55632;51.962;16.116;2022-07-19T18:29:36;21.60;;;3.90;;
68647;SDS011;55632;51.962;16.116;2022-07-19T18:34:37;24.50;;;3.70;;
68647;SDS011;55632;51.962;16.116;2022-07-19T18:39:39;13.32;;;3.30;;
68647;SDS011;55632;51.962;16.116;2022-07-19T18:44:41;19.98;;;4.30;;
68647;SDS011;55632;51.962;16.116;2022-07-19T18:49:44;24.63;;;3.80;;
68647;SDS011;55632;51.962;16.116;2022-07-19T18:54:46;23.25;;;5.22;;
68647;SDS011;55632;51.962;16.116;2022-07-19T18:59:47;14.63;;;4.05;;
68647;SDS011;55632;51.962;16.116;2022-07-19T19:04:49;8.23;;;2.90;;
68647;SDS011;55632;51.962;16.116;2022-07-19T19:09:53;19.05;;;4.70;;
68647;SDS011;55632;51.962;16.116;2022-07-19T19:14:54;14.20;;;5.55;;
68647;SDS011;55632;51.962;16.116;2022-07-19T19:19:55;68.03;;;7.82;;
68647;SDS011;55632;51.962;16.116;2022-07-19T19:24:56;14.75;;;7.03;;
68647;SDS011;55632;51.962;16.116;2022-07-19T19:29:57;16.98;;;3.83;;
68647;SDS011;55632;51.962;16.116;2022-07-19T19:35:02;16.08;;;3.60;;
68647;SDS011;55632;51.962;16.116;2022-07-19T19:40:04;31.00;;;4.53;;
68647;SDS011;55632;51.962;16.116;2022-07-19T19:45:06;28.08;;;11.45;;
68647;SDS011;55632;51.962;16.116;2022-07-19T19:50:08;29.48;;;5.45;;
68647;SDS011;55632;51.962;16.116;2022-07-19T19:55:10;20.67;;;5.00;;
68647;SDS011;55632;51.962;16.116;2022-07-19T20:00:11;90.00;;;8.90;;
68647;SDS011;55632;51.962;16.116;2022-07-19T20:05:13;71.57;;;8.95;;
68647;SDS011;55632;51.962;16.116;2022-07-19T20:10:16;9.95;;;3.83;;
68647;SDS011;55632;51.962;16.116;2022-07-19T20:15:18;107.15;;;11.45;;
68647;SDS011;55632;51.962;16.116;2022-07-19T20:20:19;41.45;;;5.65;;
68647;SDS011;55632;51.962;16.116;2022-07-19T20:25:20;56.95;;;7.13;;
68647;SDS011;55632;51.962;16.116;2022-07-19T20:30:21;27.48;;;6.28;;
68647;SDS011;55632;51.962;16.116;2022-07-19T20:35:22;39.53;;;6.18;;
68647;SDS011;55632;51.962;16.116;2022-07-19T20:40:23;36.45;;;6.25;;
68647;SDS011;55632;51.962;16.116;2022-07-19T20:45:24;24.00;;;5.32;;
68647;SDS011;55632;51.962;16.116;2022-07-19T20:50:25;35.63;;;5.43;;
68647;SDS011;55632;51.962;16.116;2022-07-19T20:55:26;115.72;;;10.43;;
68647;SDS011;55632;51.962;16.116;2022-07-19T21:00:27;36.38;;;8.18;;
68647;SDS011;55632;51.962;16.116;2022-07-19T21:05:29;88.45;;;10.30;;
68647;SDS011;55632;51.962;16.116;2022-07-19T21:10:30;13.93;;;4.50;;
68647;SDS011;55632;51.962;16.116;2022-07-19T21:15:31;23.45;;;6.15;;
68647;SDS011;55632;51.962;16.116;2022-07-19T21:20:32;38.50;;;6.55;;
68647;SDS011;55632;51.962;16.116;2022-07-19T21:25:32;33.53;;;8.23;;
68647;SDS011;55632;51.962;16.116;2022-07-19T21:30:33;18.08;;;5.47;;
68647;SDS011;55632;51.962;16.116;2022-07-19T21:35:34;14.60;;;5.57;;
68647;SDS011;55632;51.962;16.116;2022-07-19T21:40:35;15.55;;;4.10;;
68647;SDS011;55632;51.962;16.116;2022-07-19T21:45:36;21.38;;;5.53;;
68647;SDS011;55632;51.962;16.116;2022-07-19T21:50:39;29.20;;;5.97;;
68647;SDS011;55632;51.962;16.116;2022-07-19T21:55:39;24.38;;;5.28;;
68647;SDS011;55632;51.962;16.116;2022-07-19T22:00:41;22.00;;;3.90;;
68647;SDS011;55632;51.962;16.116;2022-07-19T22:05:41;37.78;;;5.07;;
68647;SDS011;55632;51.962;16.116;2022-07-19T22:10:42;30.10;;;6.03;;
68647;SDS011;55632;51.962;16.116;2022-07-19T22:15:43;22.30;;;6.15;;
68647;SDS011;55632;51.962;16.116;2022-07-19T22:20:44;36.90;;;5.90;;
68647;SDS011;55632;51.962;16.116;2022-07-19T22:25:47;34.28;;;7.00;;
68647;SDS011;55632;51.962;16.116;2022-07-19T22:30:49;29.90;;;7.50;;
68647;SDS011;55632;51.962;16.116;2022-07-19T22:35:49;30.02;;;6.18;;
68647;SDS011;55632;51.962;16.116;2022-07-19T22:40:50;31.05;;;6.40;;
68647;SDS011;55632;51.962;16.116;2022-07-19T22:45:51;37.45;;;6.95;;
68647;SDS011;55632;51.962;16.116;2022-07-19T22:50:52;28.98;;;6.43;;
68647;SDS011;55632;51.962;16.116;2022-07-19T22:55:54;24.95;;;6.07;;
68647;SDS011;55632;51.962;16.116;2022-07-19T23:00:55;20.05;;;5.72;;
68647;SDS011;55632;51.962;16.116;2022-07-19T23:05:56;22.63;;;5.80;;
68647;SDS011;55632;51.962;16.116;2022-07-19T23:10:57;18.15;;;5.85;;
68647;SDS011;55632;51.962;16.116;2022-07-19T23:15:59;29.88;;;7.10;;
68647;SDS011;55632;51.962;16.116;2022-07-19T23:21:00;21.30;;;6.20;;
68647;SDS011;55632;51.962;16.116;2022-07-19T23:26:02;20.90;;;5.07;;
68647;SDS011;55632;51.962;16.116;2022-07-19T23:31:04;13.30;;;4.65;;
68647;SDS011;55632;51.962;16.116;2022-07-19T23:36:05;20.08;;;6.03;;
68647;SDS011;55632;51.962;16.116;2022-07-19T23:41:06;26.70;;;6.20;;
68647;SDS011;55632;51.962;16.116;2022-07-19T23:46:07;69.63;;;10.73;;
68647;SDS011;55632;51.962;16.116;2022-07-19T23:51:12;40.28;;;7.03;;
68647;SDS011;55632;51.962;16.116;2022-07-19T23:56:13;43.10;;;7.82;;
